createdAt,value
2023-05-13T00:00:37.344Z,5.77
2023-05-13T00:03:05.267Z,5.67
2023-05-13T00:05:33.115Z,5.65
2023-05-13T00:08:02.209Z,5.57
2023-05-13T00:10:31.594Z,5.58
2023-05-13T00:13:02.060Z,5.58
2023-05-13T00:15:30.128Z,5.59
2023-05-13T00:17:58.008Z,5.55
2023-05-13T00:20:25.945Z,5.36
2023-05-13T00:22:53.606Z,5.57
2023-05-13T00:25:21.414Z,5.56
2023-05-13T00:27:49.072Z,5.50
2023-05-13T00:30:18.239Z,5.50
2023-05-13T00:32:46.255Z,5.37
2023-05-13T00:35:14.058Z,5.30
2023-05-13T00:37:41.856Z,5.17
2023-05-13T00:40:16.880Z,5.05
2023-05-13T00:42:44.534Z,5.00
2023-05-13T00:45:12.380Z,5.01
2023-05-13T00:47:42.215Z,4.99
2023-05-13T00:50:11.256Z,4.95
2023-05-13T00:52:39.901Z,4.92
2023-05-13T00:55:08.451Z,5.01
2023-05-13T00:57:36.377Z,4.87
2023-05-13T01:00:05.946Z,4.89
2023-05-13T01:02:36.504Z,4.78
2023-05-13T01:05:10.815Z,4.66
2023-05-13T01:07:42.308Z,4.79
2023-05-13T01:10:13.142Z,4.58
2023-05-13T01:12:41.874Z,4.62
2023-05-13T01:15:10.765Z,4.63
2023-05-13T01:17:40.772Z,4.62
2023-05-13T01:20:11.234Z,4.53
2023-05-13T01:22:40.502Z,4.41
2023-05-13T01:25:08.801Z,4.38
2023-05-13T01:27:36.614Z,4.40
2023-05-13T01:30:04.954Z,4.35
2023-05-13T01:32:32.910Z,4.35
2023-05-13T01:35:01.847Z,4.32
2023-05-13T01:37:29.866Z,4.26
2023-05-13T01:39:59.276Z,4.27
2023-05-13T01:42:28.186Z,4.26
2023-05-13T01:44:55.864Z,4.15
2023-05-13T01:47:23.796Z,4.06
2023-05-13T01:49:52.656Z,4.06
2023-05-13T01:52:20.855Z,4.26
2023-05-13T01:54:48.668Z,4.15
2023-05-13T01:57:17.788Z,4.09
2023-05-13T01:59:45.432Z,4.10
2023-05-13T02:02:13.248Z,4.12
2023-05-13T02:04:40.977Z,4.03
2023-05-13T02:07:08.745Z,4.11
2023-05-13T02:09:36.512Z,3.99
2023-05-13T02:12:04.409Z,3.98
2023-05-13T02:14:33.628Z,3.98
2023-05-13T02:17:01.342Z,3.89
2023-05-13T02:19:29.197Z,3.84
2023-05-13T02:21:56.995Z,3.86
2023-05-13T02:24:25.854Z,3.83
2023-05-13T02:26:54.598Z,4.01
2023-05-13T02:29:22.424Z,4.00
2023-05-13T02:31:51.752Z,3.87
2023-05-13T02:34:19.595Z,4.22
2023-05-13T02:36:48.639Z,4.05
2023-05-13T02:39:16.545Z,4.06
2023-05-13T02:41:44.589Z,4.09
2023-05-13T02:44:12.354Z,4.09
2023-05-13T02:46:40.228Z,4.14
2023-05-13T02:49:09.312Z,4.21
2023-05-13T02:51:37.024Z,4.01
2023-05-13T02:54:04.923Z,3.96
2023-05-13T02:56:32.628Z,4.01
2023-05-13T02:59:00.233Z,4.10
2023-05-13T03:01:28.210Z,4.04
2023-05-13T03:03:56.036Z,4.13
2023-05-13T03:06:25.145Z,4.16
2023-05-13T03:08:52.976Z,4.22
2023-05-13T03:11:21.250Z,4.24
2023-05-13T03:13:49.033Z,4.41
2023-05-13T03:16:16.768Z,4.55
2023-05-13T03:18:44.680Z,4.56
2023-05-13T03:21:12.460Z,4.63
2023-05-13T03:23:41.664Z,4.71
2023-05-13T03:26:09.664Z,4.81
2023-05-13T03:28:37.354Z,5.07
2023-05-13T03:31:05.149Z,5.08
2023-05-13T03:33:33.054Z,5.12
2023-05-13T03:36:00.856Z,5.19
2023-05-13T03:38:28.620Z,5.37
2023-05-13T03:40:57.805Z,5.47
2023-05-13T03:43:25.580Z,5.65
2023-05-13T03:45:53.242Z,5.79
2023-05-13T03:48:21.275Z,5.87
2023-05-13T03:50:48.997Z,6.05
2023-05-13T03:53:17.275Z,6.06
2023-05-13T03:55:46.041Z,6.19
2023-05-13T03:58:15.985Z,6.32
2023-05-13T04:00:46.615Z,6.53
2023-05-13T04:03:16.217Z,6.64
2023-05-13T04:05:45.557Z,6.75
2023-05-13T04:08:13.229Z,6.91
2023-05-13T04:10:43.309Z,7.14
2023-05-13T04:13:11.039Z,7.24
2023-05-13T04:15:40.128Z,7.48
2023-05-13T04:18:08.579Z,7.61
2023-05-13T04:20:38.511Z,7.79
2023-05-13T04:23:06.582Z,7.92
2023-05-13T04:25:35.354Z,8.10
2023-05-13T04:28:02.988Z,8.31
2023-05-13T04:30:33.356Z,8.61
2023-05-13T04:33:02.735Z,8.88
2023-05-13T04:35:30.486Z,9.13
2023-05-13T04:37:58.192Z,9.34
2023-05-13T04:40:26.566Z,9.59
2023-05-13T04:42:55.116Z,9.93
2023-05-13T04:45:23.813Z,10.24
2023-05-13T04:47:51.592Z,10.54
2023-05-13T04:50:21.116Z,10.82
2023-05-13T04:52:49.786Z,11.12
2023-05-13T04:55:17.694Z,11.35
2023-05-13T04:57:45.396Z,11.61
2023-05-13T05:00:13.848Z,11.89
2023-05-13T05:02:41.535Z,12.14
2023-05-13T05:05:09.670Z,12.21
2023-05-13T05:07:40.607Z,12.49
2023-05-13T05:10:08.896Z,12.58
2023-05-13T05:12:38.183Z,13.04
2023-05-13T05:15:06.424Z,13.97
2023-05-13T05:17:35.513Z,15.19
2023-05-13T05:20:03.621Z,15.78
2023-05-13T05:22:31.351Z,16.50
2023-05-13T05:25:00.614Z,16.82
2023-05-13T05:27:28.408Z,16.82
2023-05-13T05:29:56.129Z,17.00
2023-05-13T05:32:24.176Z,17.13
2023-05-13T05:34:51.995Z,16.72
2023-05-13T05:37:19.726Z,16.16
2023-05-13T05:39:47.571Z,15.80
2023-05-13T05:42:16.646Z,15.63
2023-05-13T05:44:44.382Z,15.62
2023-05-13T05:47:12.206Z,15.69
2023-05-13T05:49:39.937Z,15.95
2023-05-13T05:52:07.777Z,15.98
2023-05-13T05:54:35.645Z,16.21
2023-05-13T05:57:03.328Z,16.39
2023-05-13T05:59:32.475Z,16.46
2023-05-13T06:02:00.530Z,16.60
2023-05-13T06:04:28.300Z,16.70
2023-05-13T06:06:56.068Z,16.81
2023-05-13T06:09:23.934Z,16.94
2023-05-13T06:11:51.757Z,17.04
2023-05-13T06:14:19.538Z,17.17
2023-05-13T06:16:48.736Z,17.35
2023-05-13T06:19:18.108Z,17.59
2023-05-13T06:21:45.870Z,17.68
2023-05-13T06:24:13.692Z,17.86
2023-05-13T06:26:41.665Z,17.68
2023-05-13T06:29:09.327Z,17.79
2023-05-13T06:31:37.088Z,18.00
2023-05-13T06:34:06.399Z,18.14
2023-05-13T06:36:34.121Z,18.22
2023-05-13T06:39:04.577Z,18.11
2023-05-13T06:41:32.344Z,18.18
2023-05-13T06:44:00.051Z,18.34
2023-05-13T06:46:27.711Z,18.22
2023-05-13T06:48:56.866Z,18.43
2023-05-13T06:51:26.327Z,18.75
2023-05-13T06:53:54.097Z,18.71
2023-05-13T06:56:22.995Z,18.88
2023-05-13T06:58:50.733Z,18.95
2023-05-13T07:01:18.560Z,18.86
2023-05-13T07:03:46.663Z,19.28
2023-05-13T07:06:14.401Z,19.23
2023-05-13T07:08:43.609Z,19.28
2023-05-13T07:11:11.342Z,19.20
2023-05-13T07:13:40.086Z,19.44
2023-05-13T07:16:07.961Z,19.54
2023-05-13T07:18:35.748Z,19.73
2023-05-13T07:21:06.696Z,19.22
2023-05-13T07:23:35.562Z,19.26
2023-05-13T07:26:04.785Z,18.88
2023-05-13T07:28:33.605Z,18.71
2023-05-13T07:31:01.428Z,19.22
2023-05-13T07:33:29.571Z,19.36
2023-05-13T07:35:57.419Z,19.50
2023-05-13T07:38:25.141Z,19.95
2023-05-13T07:40:53.016Z,20.14
2023-05-13T07:43:24.017Z,20.30
2023-05-13T07:45:51.846Z,20.08
2023-05-13T07:48:19.659Z,19.61
2023-05-13T07:50:47.550Z,20.00
2023-05-13T07:53:16.629Z,20.26
2023-05-13T07:55:46.020Z,20.02
2023-05-13T07:58:14.061Z,19.89
2023-05-13T08:00:43.115Z,19.94
2023-05-13T08:03:12.407Z,20.40
2023-05-13T08:05:40.251Z,20.47
2023-05-13T08:08:07.943Z,20.73
2023-05-13T08:10:35.772Z,20.42
2023-05-13T08:13:03.489Z,20.57
2023-05-13T08:15:31.356Z,20.45
2023-05-13T08:18:00.454Z,20.41
2023-05-13T08:20:30.241Z,20.60
2023-05-13T08:22:58.429Z,21.13
2023-05-13T08:25:26.405Z,21.05
2023-05-13T08:27:55.062Z,20.60
2023-05-13T08:30:23.087Z,21.05
2023-05-13T08:32:51.104Z,20.96
2023-05-13T08:35:20.727Z,21.08
2023-05-13T08:37:48.695Z,21.38
2023-05-13T08:40:16.510Z,21.24
2023-05-13T08:42:46.566Z,21.43
2023-05-13T08:45:14.579Z,21.43
2023-05-13T08:47:50.565Z,21.60
2023-05-13T08:50:18.648Z,21.39
2023-05-13T08:52:47.853Z,21.27
2023-05-13T08:55:15.844Z,21.41
2023-05-13T08:57:43.681Z,21.50
2023-05-13T09:00:11.866Z,21.55
2023-05-13T09:02:39.599Z,21.30
2023-05-13T09:05:08.699Z,21.60
2023-05-13T09:07:38.569Z,21.95
2023-05-13T09:10:08.884Z,21.84
2023-05-13T09:12:50.013Z,21.83
2023-05-13T09:15:19.267Z,21.99
2023-05-13T09:17:50.153Z,22.17
2023-05-13T09:20:19.517Z,22.22
2023-05-13T09:22:48.016Z,22.35
2023-05-13T09:25:17.846Z,22.35
2023-05-13T09:27:48.168Z,22.39
2023-05-13T09:30:16.080Z,22.11
2023-05-13T09:33:04.919Z,22.10
2023-05-13T09:35:33.175Z,22.48
2023-05-13T09:38:01.028Z,22.36
2023-05-13T09:40:30.422Z,22.15
2023-05-13T09:42:59.023Z,22.57
2023-05-13T09:45:27.105Z,22.43
2023-05-13T09:47:58.639Z,22.72
2023-05-13T09:50:26.402Z,22.74
2023-05-13T09:52:54.151Z,22.28
2023-05-13T09:55:23.667Z,22.49
2023-05-13T09:57:54.371Z,22.71
2023-05-13T10:00:32.198Z,22.69
2023-05-13T10:03:01.559Z,22.61
2023-05-13T10:05:29.376Z,22.63
2023-05-13T10:07:57.312Z,22.73
2023-05-13T10:10:25.987Z,23.09
2023-05-13T10:12:55.318Z,23.12
2023-05-13T10:15:23.593Z,22.71
2023-05-13T10:17:51.962Z,22.91
2023-05-13T10:20:20.029Z,22.65
2023-05-13T10:22:48.287Z,22.90
2023-05-13T10:25:16.040Z,22.97
2023-05-13T10:27:44.386Z,22.75
2023-05-13T10:30:14.482Z,22.74
2023-05-13T10:32:42.263Z,22.80
2023-05-13T10:35:13.113Z,22.74
2023-05-13T10:37:55.630Z,22.83
2023-05-13T10:40:41.776Z,23.15
2023-05-13T10:43:17.169Z,23.29
2023-05-13T10:45:50.551Z,22.82
2023-05-13T10:48:19.007Z,23.07
2023-05-13T10:50:54.402Z,22.94
2023-05-13T10:53:23.501Z,22.98
2023-05-13T10:55:54.321Z,23.00
2023-05-13T10:58:24.725Z,23.09
2023-05-13T11:00:53.943Z,23.32
2023-05-13T11:03:29.886Z,23.34
2023-05-13T11:06:04.504Z,23.44
2023-05-13T11:08:39.305Z,23.58
2023-05-13T11:11:24.963Z,22.98
2023-05-13T11:13:53.159Z,23.06
2023-05-13T11:16:22.986Z,23.67
2023-05-13T11:18:52.103Z,23.12
2023-05-13T11:21:30.415Z,23.39
2023-05-13T11:23:59.070Z,23.67
2023-05-13T11:26:26.757Z,23.63
2023-05-13T11:28:55.453Z,23.58
2023-05-13T11:31:25.073Z,22.43
2023-05-13T11:36:20.510Z,22.47
2023-05-13T11:38:48.407Z,22.92
2023-05-13T11:41:16.018Z,23.45
2023-05-13T11:43:43.817Z,22.90
2023-05-13T11:46:12.474Z,22.85
2023-05-13T11:48:41.494Z,23.26
2023-05-13T11:51:09.247Z,23.34
2023-05-13T11:53:37.095Z,23.44
2023-05-13T11:56:10.695Z,23.03
2023-05-13T11:58:38.596Z,23.42
2023-05-13T12:01:06.298Z,23.06
2023-05-13T12:03:34.235Z,23.18
2023-05-13T12:06:03.608Z,23.30
2023-05-13T12:08:31.787Z,23.27
2023-05-13T12:11:00.477Z,23.15
2023-05-13T12:13:28.443Z,23.21
2023-05-13T12:15:56.231Z,22.98
2023-05-13T12:18:24.540Z,22.50
2023-05-13T12:20:52.453Z,22.82
2023-05-13T12:23:21.541Z,22.73
2023-05-13T12:25:51.356Z,21.57
2023-05-13T12:28:19.894Z,21.58
2023-05-13T12:30:51.754Z,22.11
2023-05-13T12:33:20.190Z,22.64
2023-05-13T12:35:49.457Z,22.88
2023-05-13T12:38:18.401Z,22.80
2023-05-13T12:40:47.988Z,22.56
2023-05-13T12:43:16.912Z,22.64
2023-05-13T12:45:45.378Z,22.63
2023-05-13T12:48:14.450Z,22.71
2023-05-13T12:50:42.259Z,22.77
2023-05-13T12:53:10.080Z,22.19
2023-05-13T12:55:39.934Z,22.17
2023-05-13T12:58:35.021Z,22.39
2023-05-13T13:01:04.423Z,22.04
2023-05-13T13:03:32.307Z,22.30
2023-05-13T13:06:00.157Z,22.33
2023-05-13T13:08:30.409Z,21.78
2023-05-13T13:10:59.542Z,21.79
2023-05-13T13:13:27.298Z,22.50
2023-05-13T13:15:55.028Z,22.62
2023-05-13T13:18:24.642Z,22.84
2023-05-13T13:20:52.654Z,22.69
2023-05-13T13:23:20.484Z,22.67
2023-05-13T13:25:48.186Z,22.95
2023-05-13T13:28:15.976Z,22.74
2023-05-13T13:30:46.708Z,21.92
2023-05-13T13:33:15.292Z,21.79
2023-05-13T13:35:45.479Z,22.25
2023-05-13T13:38:13.407Z,22.79
2023-05-13T13:40:41.181Z,22.51
2023-05-13T13:43:09.241Z,22.73
2023-05-13T13:45:37.499Z,22.87
2023-05-13T13:48:05.405Z,22.97
2023-05-13T13:50:33.100Z,22.15
2023-05-13T13:53:02.289Z,22.49
2023-05-13T13:55:29.974Z,22.64
2023-05-13T13:57:57.807Z,22.34
2023-05-13T14:00:25.590Z,22.59
2023-05-13T14:02:56.149Z,22.81
2023-05-13T14:05:23.922Z,22.05
2023-05-13T14:07:54.093Z,22.71
2023-05-13T14:10:23.505Z,22.47
2023-05-13T14:12:51.405Z,22.84
2023-05-13T14:15:19.179Z,22.74
2023-05-13T14:17:46.980Z,22.35
2023-05-13T14:20:14.869Z,22.37
2023-05-13T14:22:42.688Z,22.49
2023-05-13T14:25:10.735Z,22.65
2023-05-13T14:27:39.802Z,22.61
2023-05-13T14:30:08.118Z,22.37
2023-05-13T14:32:35.869Z,21.80
2023-05-13T14:35:03.677Z,22.02
2023-05-13T14:37:31.654Z,22.40
2023-05-13T14:39:59.474Z,22.31
2023-05-13T14:42:27.186Z,21.98
2023-05-13T14:44:56.505Z,21.70
2023-05-13T14:47:24.284Z,22.23
2023-05-13T14:49:51.916Z,22.50
2023-05-13T14:52:19.777Z,22.11
2023-05-13T14:54:47.720Z,22.61
2023-05-13T14:57:15.420Z,22.83
2023-05-13T14:59:43.258Z,23.04
2023-05-13T15:02:13.994Z,22.46
2023-05-13T15:04:41.942Z,22.76
2023-05-13T15:07:09.754Z,22.84
2023-05-13T15:09:38.555Z,22.97
2023-05-13T15:12:06.917Z,23.08
2023-05-13T15:14:34.664Z,23.21
2023-05-13T15:17:02.412Z,23.40
2023-05-13T15:19:31.878Z,22.96
2023-05-13T15:21:59.662Z,22.65
2023-05-13T15:24:27.482Z,22.47
2023-05-13T15:26:55.280Z,22.43
2023-05-13T15:29:23.039Z,22.23
2023-05-13T15:31:51.779Z,22.19
2023-05-13T15:34:19.636Z,22.00
2023-05-13T15:36:48.825Z,22.18
2023-05-13T15:39:17.228Z,22.31
2023-05-13T15:41:45.165Z,22.43
2023-05-13T15:44:12.995Z,22.14
2023-05-13T15:46:40.947Z,21.81
2023-05-13T15:49:08.883Z,22.30
2023-05-13T15:51:36.689Z,22.08
2023-05-13T15:54:05.908Z,22.31
2023-05-13T15:56:33.719Z,22.73
2023-05-13T15:59:02.769Z,22.59
2023-05-13T16:01:30.752Z,22.54
2023-05-13T16:03:58.720Z,22.53
2023-05-13T16:06:26.705Z,22.43
2023-05-13T16:08:56.449Z,22.29
2023-05-13T16:11:26.046Z,22.58
2023-05-13T16:13:53.867Z,22.19
2023-05-13T16:16:21.855Z,22.22
2023-05-13T16:18:50.143Z,22.33
2023-05-13T16:21:18.280Z,22.06
2023-05-13T16:23:45.996Z,21.95
2023-05-13T16:26:13.799Z,21.76
2023-05-13T16:28:42.924Z,22.26
2023-05-13T16:31:10.890Z,22.09
2023-05-13T16:33:38.847Z,22.13
2023-05-13T16:36:06.989Z,22.02
2023-05-13T16:38:35.475Z,22.02
2023-05-13T16:41:03.619Z,22.03
2023-05-13T16:43:31.297Z,21.99
2023-05-13T16:46:00.422Z,21.98
2023-05-13T16:48:28.285Z,21.95
2023-05-13T16:50:56.256Z,21.72
2023-05-13T16:53:26.309Z,21.59
2023-05-13T16:55:54.091Z,21.67
2023-05-13T16:58:22.005Z,21.67
2023-05-13T17:00:49.754Z,21.58
2023-05-13T17:03:19.127Z,21.59
2023-05-13T17:05:46.984Z,21.54
2023-05-13T17:08:14.827Z,21.99
2023-05-13T17:10:42.506Z,22.08
2023-05-13T17:13:10.228Z,22.50
2023-05-13T17:15:38.115Z,22.81
2023-05-13T17:18:05.895Z,22.94
2023-05-13T17:20:35.137Z,22.44
2023-05-13T17:23:02.924Z,22.87
2023-05-13T17:25:30.678Z,23.17
2023-05-13T17:27:58.593Z,23.67
2023-05-13T17:30:26.380Z,23.31
2023-05-13T17:32:54.061Z,23.00
2023-05-13T17:35:21.846Z,23.00
2023-05-13T17:37:50.949Z,22.42
2023-05-13T17:40:18.661Z,22.17
2023-05-13T17:42:46.430Z,22.19
2023-05-13T17:45:14.172Z,21.88
2023-05-13T17:47:42.033Z,21.34
2023-05-13T17:50:10.473Z,20.93
2023-05-13T17:52:38.259Z,20.69
2023-05-13T17:55:08.270Z,20.23
2023-05-13T17:57:36.085Z,19.99
2023-05-13T18:00:06.643Z,19.46
2023-05-13T18:02:34.663Z,19.33
2023-05-13T18:05:02.562Z,18.79
2023-05-13T18:07:30.678Z,18.58
2023-05-13T18:09:58.423Z,18.27
2023-05-13T18:12:27.603Z,18.12
2023-05-13T18:14:55.313Z,17.73
2023-05-13T18:17:23.235Z,17.56
2023-05-13T18:19:51.128Z,17.39
2023-05-13T18:22:18.905Z,17.39
2023-05-13T18:24:47.515Z,17.20
2023-05-13T18:27:15.476Z,17.07
2023-05-13T18:29:44.527Z,16.73
2023-05-13T18:32:12.176Z,16.61
2023-05-13T18:34:39.954Z,16.44
2023-05-13T18:37:07.668Z,16.50
2023-05-13T18:39:35.339Z,16.08
2023-05-13T18:42:03.103Z,15.91
2023-05-13T18:44:31.137Z,15.82
2023-05-13T18:47:00.375Z,15.59
2023-05-13T18:49:29.511Z,15.43
2023-05-13T18:51:57.432Z,15.12
2023-05-13T18:54:30.692Z,14.99
2023-05-13T18:56:58.498Z,14.90
2023-05-13T18:59:26.136Z,14.89
2023-05-13T19:01:53.961Z,14.61
2023-05-13T19:04:23.456Z,14.66
2023-05-13T19:06:51.267Z,14.78
2023-05-13T19:09:20.832Z,14.79
2023-05-13T19:11:48.730Z,14.57
2023-05-13T19:14:16.573Z,14.75
2023-05-13T19:16:44.291Z,14.57
2023-05-13T19:19:12.294Z,14.09
2023-05-13T19:21:41.472Z,13.90
2023-05-13T19:24:09.208Z,13.78
2023-05-13T19:26:36.991Z,13.72
2023-05-13T19:29:04.903Z,13.48
2023-05-13T19:31:32.736Z,13.67
2023-05-13T19:34:01.451Z,13.60
2023-05-13T19:36:32.799Z,13.41
2023-05-13T19:39:01.896Z,13.20
2023-05-13T19:41:29.770Z,12.91
2023-05-13T19:43:57.522Z,12.85
2023-05-13T19:46:25.278Z,12.88
2023-05-13T19:48:53.205Z,12.74
2023-05-13T19:51:20.997Z,12.97
2023-05-13T19:53:48.708Z,13.08
2023-05-13T19:56:17.931Z,12.79
2023-05-13T19:58:45.617Z,12.33
2023-05-13T20:01:14.910Z,12.03
2023-05-13T20:03:44.097Z,11.80
2023-05-13T20:06:12.059Z,11.81
2023-05-13T20:08:39.789Z,11.62
2023-05-13T20:11:07.606Z,11.46
2023-05-13T20:13:36.914Z,11.35
2023-05-13T20:16:04.767Z,11.46
2023-05-13T20:18:35.020Z,11.40
2023-05-13T20:21:02.890Z,11.08
2023-05-13T20:23:30.988Z,10.91
2023-05-13T20:25:59.376Z,10.76
2023-05-13T20:28:27.002Z,10.74
2023-05-13T20:30:56.232Z,10.61
2023-05-13T20:33:24.006Z,11.00
2023-05-13T20:35:51.692Z,10.58
2023-05-13T20:38:19.527Z,10.18
2023-05-13T20:40:47.494Z,9.87
2023-05-13T20:43:16.835Z,9.78
2023-05-13T20:45:44.722Z,9.73
2023-05-13T20:48:14.089Z,9.68
2023-05-13T20:50:41.947Z,9.58
2023-05-13T20:53:09.604Z,9.59
2023-05-13T20:55:37.540Z,9.47
2023-05-13T20:58:05.284Z,9.44
2023-05-13T21:00:32.992Z,9.29
2023-05-13T21:03:00.965Z,9.46
2023-05-13T21:05:30.248Z,9.25
2023-05-13T21:07:58.150Z,9.07
2023-05-13T21:10:26.080Z,9.10
2023-05-13T21:12:54.046Z,8.77
2023-05-13T21:15:22.255Z,8.49
2023-05-13T21:17:50.007Z,8.48
2023-05-13T21:20:17.895Z,8.36
2023-05-13T21:22:47.292Z,8.37
2023-05-13T21:25:14.960Z,8.17
2023-05-13T21:27:42.627Z,8.19
2023-05-13T21:30:10.976Z,7.92
2023-05-13T21:32:38.811Z,7.98
2023-05-13T21:35:07.070Z,7.90
2023-05-13T21:37:34.929Z,7.93
2023-05-13T21:40:04.305Z,7.79
2023-05-13T21:42:32.082Z,7.67
2023-05-13T21:44:59.883Z,7.60
2023-05-13T21:47:32.027Z,7.67
2023-05-13T21:50:00.037Z,7.64
2023-05-13T21:52:27.890Z,7.52
2023-05-13T21:54:55.664Z,7.49
2023-05-13T21:57:24.930Z,7.46
2023-05-13T21:59:52.718Z,7.37
2023-05-13T22:02:20.440Z,7.27
2023-05-13T22:04:48.195Z,7.28
2023-05-13T22:07:16.024Z,7.28
2023-05-13T22:09:43.664Z,7.19
2023-05-13T22:12:11.576Z,7.07
2023-05-13T22:14:40.812Z,7.02
2023-05-13T22:17:10.395Z,7.03
2023-05-13T22:19:38.544Z,7.01
2023-05-13T22:22:08.682Z,6.88
2023-05-13T22:24:36.527Z,6.75
2023-05-13T22:27:07.923Z,6.82
2023-05-13T22:29:35.754Z,6.75
2023-05-13T22:32:05.247Z,6.69
2023-05-13T22:34:33.875Z,6.69
2023-05-13T22:37:02.443Z,6.71
2023-05-13T22:39:30.281Z,6.77
2023-05-13T22:41:58.049Z,6.69
2023-05-13T22:44:25.832Z,6.71
2023-05-13T22:46:54.276Z,6.61
2023-05-13T22:49:23.429Z,6.63
2023-05-13T22:51:51.169Z,6.75
2023-05-13T22:54:18.941Z,6.77
2023-05-13T22:56:46.572Z,6.53
2023-05-13T22:59:14.252Z,6.54
2023-05-13T23:01:42.079Z,6.48
2023-05-13T23:04:10.128Z,6.44
2023-05-13T23:06:39.193Z,6.39
2023-05-13T23:09:07.784Z,6.43
2023-05-13T23:11:37.030Z,6.30
2023-05-13T23:14:04.756Z,6.16
2023-05-13T23:16:32.578Z,6.08
2023-05-13T23:19:00.503Z,6.09
2023-05-13T23:21:28.339Z,6.13
2023-05-13T23:23:57.952Z,6.18
2023-05-13T23:26:25.886Z,5.87
2023-05-13T23:28:53.657Z,5.78
2023-05-13T23:31:21.456Z,5.95
2023-05-13T23:33:49.261Z,5.99
2023-05-13T23:36:17.016Z,5.91
2023-05-13T23:38:44.683Z,5.83
2023-05-13T23:41:13.871Z,5.91
2023-05-13T23:43:41.637Z,5.74
2023-05-13T23:46:09.496Z,5.85
2023-05-13T23:48:37.462Z,5.75
2023-05-13T23:51:05.460Z,5.95
2023-05-13T23:53:33.237Z,5.96
2023-05-13T23:56:01.122Z,5.80
2023-05-13T23:58:30.169Z,5.79
